Time;durP1;ratioP1;P1;durP2;ratioP2;P2;SDS_P1;SDS_P2;PMS_P1;PMS_P2;Temp;Humidity;BMP_temperature;BMP_pressure;BME280_temperature;BME280_humidity;BME280_pressure;Samples;Min_cycle;Max_cycle;Signal;HPM_P1;HPM_P2
2023/12/13 00:01:01;;;;;;;2.23;1.93;;;22.90;63.90;;;;;;5079298;28;20460;-78
2023/12/13 00:03:29;;;;;;;1.97;1.80;;;22.80;63.80;;;;;;5071110;28;20507;-78
2023/12/13 00:05:57;;;;;;;3.83;1.67;;;22.90;63.90;;;;;;5072933;28;20445;-78
2023/12/13 00:08:25;;;;;;;3.63;2.13;;;22.90;63.90;;;;;;5079157;28;20451;-78
2023/12/13 00:10:58;;;;;;;3.03;1.97;;;22.80;63.90;;;;;;5072840;28;20455;-78
2023/12/13 00:13:27;;;;;;;3.77;2.50;;;22.80;63.90;;;;;;5071499;28;21165;-77
2023/12/13 00:15:57;;;;;;;2.97;1.80;;;22.80;63.90;;;;;;5066172;28;20970;-77
2023/12/13 00:18:25;;;;;;;2.17;1.70;;;22.80;63.90;;;;;;5071146;28;20987;-77
2023/12/13 00:20:53;;;;;;;2.33;2.03;;;22.80;63.80;;;;;;5090735;28;20448;-77
2023/12/13 00:23:21;;;;;;;1.67;1.57;;;22.80;63.80;;;;;;5074319;28;20499;-78
2023/12/13 00:25:49;;;;;;;1.80;1.70;;;22.80;63.80;;;;;;5070581;28;20458;-78
2023/12/13 00:28:18;;;;;;;2.60;1.40;;;22.80;63.80;;;;;;5071980;28;20438;-78
2023/12/13 00:30:46;;;;;;;1.90;1.77;;;22.80;63.80;;;;;;5072266;28;20437;-78
2023/12/13 00:33:16;;;;;;;2.73;1.57;;;22.80;63.80;;;;;;5066453;28;20824;-78
2023/12/13 00:35:44;;;;;;;1.60;1.43;;;22.80;63.80;;;;;;5065670;28;20446;-77
2023/12/13 00:38:12;;;;;;;2.00;1.70;;;22.80;63.70;;;;;;5071515;28;20964;-77
2023/12/13 00:40:40;;;;;;;2.30;1.50;;;22.80;63.70;;;;;;5071700;28;20499;-77
2023/12/13 00:43:09;;;;;;;2.63;1.57;;;22.80;63.70;;;;;;5071405;28;20441;-77
2023/12/13 00:45:37;;;;;;;1.53;1.43;;;22.80;63.70;;;;;;5070863;28;20493;-78
2023/12/13 00:48:05;;;;;;;1.70;1.60;;;22.80;63.70;;;;;;5071044;28;20458;-78
2023/12/13 00:50:35;;;;;;;1.60;1.40;;;22.80;63.60;;;;;;5068434;28;20535;-78
2023/12/13 00:53:03;;;;;;;1.80;1.70;;;22.80;63.60;;;;;;5074465;28;20485;-78
2023/12/13 00:55:32;;;;;;;3.10;1.40;;;22.80;63.60;;;;;;5070260;28;20482;-78
2023/12/13 00:58:00;;;;;;;3.03;1.50;;;22.80;63.60;;;;;;5085415;28;20510;-79
2023/12/13 01:00:29;;;;;;;1.50;1.40;;;22.80;63.60;;;;;;5070818;28;20445;-78
2023/12/13 01:02:57;;;;;;;2.07;1.77;;;22.80;63.60;;;;;;5072215;28;20491;-77
2023/12/13 01:05:26;;;;;;;1.60;1.50;;;22.80;63.60;;;;;;5069743;28;20474;-79
2023/12/13 01:07:55;;;;;;;1.57;1.20;;;22.80;63.50;;;;;;5069831;28;20450;-79
2023/12/13 01:10:24;;;;;;;1.47;1.33;;;22.80;63.50;;;;;;5064755;28;20462;-79
2023/12/13 01:12:52;;;;;;;1.43;1.30;;;22.80;63.50;;;;;;5069562;28;20492;-80
2023/12/13 01:15:20;;;;;;;1.37;1.27;;;22.80;63.50;;;;;;5067992;28;20474;-79
2023/12/13 01:17:47;;;;;;;1.50;1.27;;;22.80;63.40;;;;;;5071249;28;20524;-80
2023/12/13 01:20:16;;;;;;;1.80;1.33;;;22.80;63.50;;;;;;5070823;28;20536;-80
2023/12/13 01:22:44;;;;;;;1.67;1.57;;;22.80;63.40;;;;;;5071102;28;20434;-80
2023/12/13 01:25:14;;;;;;;1.20;1.10;;;22.80;63.40;;;;;;5051294;28;20805;-80
2023/12/13 01:27:42;;;;;;;2.57;1.30;;;22.70;63.40;;;;;;5076468;28;20445;-79
2023/12/13 01:30:11;;;;;;;1.83;1.20;;;22.70;63.40;;;;;;5091868;28;20498;-80
2023/12/13 01:32:39;;;;;;;1.00;1.00;;;22.70;63.40;;;;;;5079089;28;20540;-80
2023/12/13 01:35:08;;;;;;;1.40;1.30;;;22.70;63.10;;;;;;5061198;28;20486;-80
2023/12/13 01:37:37;;;;;;;3.20;1.30;;;22.70;63.40;;;;;;5070749;28;20453;-80
2023/12/13 01:40:07;;;;;;;1.47;1.40;;;22.70;63.30;;;;;;5074926;28;20933;-79
2023/12/13 01:42:39;;;;;;;1.57;0.97;;;22.70;63.40;;;;;;5073440;28;20528;-79
2023/12/13 01:45:08;;;;;;;1.30;1.20;;;22.70;63.40;;;;;;5071827;28;20956;-79
2023/12/13 01:47:37;;;;;;;1.07;1.07;;;22.70;63.40;;;;;;5070328;28;20422;-79
2023/12/13 01:50:07;;;;;;;1.23;1.10;;;22.70;63.30;;;;;;5071064;28;20438;-79
2023/12/13 01:52:36;;;;;;;1.87;1.30;;;22.70;63.30;;;;;;5066793;28;20492;-79
2023/12/13 01:55:07;;;;;;;2.30;1.40;;;22.70;63.30;;;;;;5068837;28;20543;-79
2023/12/13 01:57:37;;;;;;;2.77;1.27;;;22.70;63.30;;;;;;5070582;28;20449;-79
2023/12/13 02:00:08;;;;;;;1.50;1.23;;;22.70;63.10;;;;;;5071328;28;20430;-78
2023/12/13 02:02:41;;;;;;;1.13;1.03;;;22.70;63.00;;;;;;5069683;28;20449;-78
2023/12/13 02:05:11;;;;;;;1.63;1.20;;;22.60;62.90;;;;;;5070456;28;20941;-78
2023/12/13 02:07:40;;;;;;;1.20;1.10;;;22.60;63.00;;;;;;5070955;28;20996;-77
2023/12/13 02:10:09;;;;;;;1.20;1.10;;;22.60;62.80;;;;;;5065909;28;20522;-78
2023/12/13 02:15:47;;;;;;;0.80;0.80;;;22.60;63.20;;;;;;5131540;23;20502;-81
2023/12/13 02:18:16;;;;;;;1.50;1.03;;;22.60;63.20;;;;;;4942711;29;20464;-84
2023/12/13 02:20:45;;;;;;;1.27;1.17;;;22.60;63.20;;;;;;4950795;29;20569;-77
2023/12/13 02:23:14;;;;;;;1.30;1.03;;;22.60;63.20;;;;;;4952969;28;20451;-80
2023/12/13 02:25:48;;;;;;;0.93;0.80;;;22.60;63.20;;;;;;4954985;29;20478;-82
2023/12/13 02:28:17;;;;;;;0.97;0.97;;;22.60;63.20;;;;;;4944370;29;20450;-79
2023/12/13 02:30:48;;;;;;;0.60;0.60;;;22.60;63.10;;;;;;4948800;28;20475;-85
2023/12/13 02:33:16;;;;;;;0.97;0.97;;;22.60;63.10;;;;;;4949012;29;20458;-81
2023/12/13 02:35:45;;;;;;;1.93;0.97;;;22.60;63.10;;;;;;4952430;28;21001;-79
2023/12/13 02:38:15;;;;;;;1.30;1.07;;;22.60;63.10;;;;;;4953386;29;20452;-78
2023/12/13 02:40:43;;;;;;;1.43;1.33;;;22.60;63.10;;;;;;4960758;28;20488;-79
2023/12/13 02:43:11;;;;;;;1.00;1.00;;;22.50;63.10;;;;;;4955971;29;20436;-79
2023/12/13 02:45:40;;;;;;;0.97;0.97;;;22.50;63.10;;;;;;4954081;29;20475;-85
2023/12/13 02:48:08;;;;;;;1.00;0.90;;;22.50;63.10;;;;;;4949428;29;20459;-78
2023/12/13 02:50:38;;;;;;;0.93;0.83;;;22.60;63.10;;;;;;4955219;29;20451;-82
2023/12/13 02:53:07;;;;;;;0.80;0.80;;;22.50;63.10;;;;;;4936716;29;20455;-78
2023/12/13 02:55:37;;;;;;;0.50;0.50;;;22.50;63.10;;;;;;4942496;28;20472;-81
2023/12/13 02:58:06;;;;;;;1.17;0.97;;;22.50;63.10;;;;;;4947288;28;20468;-82
2023/12/13 03:00:34;;;;;;;0.80;0.80;;;22.50;63.10;;;;;;4944122;29;21014;-78
2023/12/13 03:03:02;;;;;;;1.10;0.93;;;22.50;62.90;;;;;;4954813;29;20458;-78
2023/12/13 03:05:30;;;;;;;3.03;0.70;;;22.50;63.10;;;;;;4954608;29;20474;-78
2023/12/13 03:07:59;;;;;;;0.70;0.70;;;22.50;62.90;;;;;;4950720;28;20445;-80
2023/12/13 03:10:27;;;;;;;0.70;0.70;;;22.50;62.80;;;;;;4936593;29;20441;-80
2023/12/13 03:12:57;;;;;;;0.80;0.77;;;22.50;62.90;;;;;;4950167;28;20470;-79
2023/12/13 03:15:26;;;;;;;1.10;0.80;;;22.50;62.80;;;;;;4947114;29;20501;-78
2023/12/13 03:17:54;;;;;;;0.83;0.80;;;22.50;62.90;;;;;;4951795;28;20544;-85
2023/12/13 03:20:23;;;;;;;1.10;1.00;;;22.50;62.90;;;;;;4955601;29;20495;-78
2023/12/13 03:22:51;;;;;;;1.10;1.00;;;22.50;62.80;;;;;;4954971;29;20431;-78
2023/12/13 03:25:19;;;;;;;0.70;0.70;;;22.40;62.60;;;;;;4955745;29;20540;-78
2023/12/13 03:27:47;;;;;;;0.77;0.70;;;22.40;62.80;;;;;;4954188;28;20438;-81
2023/12/13 03:30:17;;;;;;;0.70;0.70;;;22.40;62.80;;;;;;4936560;29;20428;-79
2023/12/13 03:32:45;;;;;;;0.80;0.80;;;22.40;62.80;;;;;;4935788;29;20459;-78
2023/12/13 03:35:16;;;;;;;0.80;0.80;;;22.40;62.90;;;;;;4944740;28;20463;-78
2023/12/13 03:37:44;;;;;;;0.90;0.73;;;22.40;62.90;;;;;;4948767;29;20506;-79
2023/12/13 03:40:13;;;;;;;0.70;0.70;;;22.40;62.90;;;;;;4955217;28;20810;-78
2023/12/13 03:42:41;;;;;;;0.87;0.87;;;22.40;62.90;;;;;;4954980;29;20482;-80
2023/12/13 03:45:10;;;;;;;1.80;1.33;;;22.40;62.80;;;;;;4955132;29;20455;-78
2023/12/13 03:47:40;;;;;;;0.70;0.70;;;22.40;62.80;;;;;;4953689;28;20489;-81
2023/12/13 03:50:09;;;;;;;1.23;0.70;;;22.40;62.80;;;;;;4954771;29;20439;-83
2023/12/13 03:52:38;;;;;;;0.67;0.60;;;22.40;62.80;;;;;;4955012;28;20451;-78
2023/12/13 03:55:07;;;;;;;1.10;0.80;;;22.40;62.90;;;;;;4955173;29;20526;-79
2023/12/13 03:57:35;;;;;;;0.53;0.53;;;22.40;62.80;;;;;;4940017;28;21000;-82
2023/12/13 04:00:04;;;;;;;0.70;0.67;;;22.40;62.90;;;;;;4952774;28;20475;-78
2023/12/13 04:02:40;;;;;;;0.87;0.70;;;22.40;62.90;;;;;;4952991;28;20463;-80
2023/12/13 04:05:09;;;;;;;1.07;0.70;;;22.40;62.80;;;;;;4953810;28;20529;-78
2023/12/13 04:07:37;;;;;;;0.80;0.70;;;22.30;62.80;;;;;;4950182;28;20482;-79
2023/12/13 04:10:07;;;;;;;0.50;0.50;;;22.30;62.80;;;;;;4947793;28;20463;-78
2023/12/13 04:12:35;;;;;;;1.03;1.03;;;22.30;62.70;;;;;;4954103;29;20995;-78
2023/12/13 04:15:03;;;;;;;0.90;0.90;;;22.30;62.80;;;;;;4952746;28;20541;-78
2023/12/13 04:17:32;;;;;;;0.60;0.60;;;22.30;62.80;;;;;;4953036;29;20506;-78
2023/12/13 04:20:02;;;;;;;0.83;0.60;;;22.30;62.80;;;;;;4953626;29;20439;-77
2023/12/13 04:22:30;;;;;;;1.13;0.90;;;22.30;62.80;;;;;;4954445;28;20465;-79
2023/12/13 04:24:58;;;;;;;0.80;0.67;;;22.30;62.80;;;;;;4950935;29;20978;-78
2023/12/13 04:27:27;;;;;;;0.60;0.50;;;22.30;62.80;;;;;;4953316;28;20484;-78
2023/12/13 04:29:55;;;;;;;0.93;0.90;;;22.30;62.70;;;;;;4951652;29;20456;-78
2023/12/13 04:32:23;;;;;;;0.60;0.60;;;22.30;62.70;;;;;;4948235;28;20600;-83
2023/12/13 04:34:51;;;;;;;1.13;1.00;;;22.30;62.70;;;;;;4950011;28;20466;-80
2023/12/13 04:37:21;;;;;;;0.50;0.50;;;22.30;62.70;;;;;;4944052;29;20460;-78
2023/12/13 04:39:49;;;;;;;0.50;0.50;;;22.30;62.70;;;;;;4953477;29;20462;-83
2023/12/13 04:42:17;;;;;;;0.50;0.50;;;22.30;62.60;;;;;;4953639;29;20494;-82
2023/12/13 04:44:46;;;;;;;0.60;0.60;;;22.30;62.60;;;;;;4953933;29;21083;-78
2023/12/13 04:47:14;;;;;;;0.80;0.50;;;22.30;62.60;;;;;;4949775;28;20906;-78
2023/12/13 04:49:42;;;;;;;0.47;0.47;;;22.30;62.50;;;;;;4949045;28;20955;-80
2023/12/13 04:52:10;;;;;;;0.50;0.50;;;22.20;62.40;;;;;;4946416;28;20539;-78
2023/12/13 04:54:40;;;;;;;0.43;0.43;;;22.20;62.40;;;;;;4949890;28;20463;-78
2023/12/13 04:57:09;;;;;;;0.40;0.40;;;22.20;62.40;;;;;;4951909;29;20512;-81
2023/12/13 04:59:37;;;;;;;0.77;0.70;;;22.20;62.50;;;;;;4952132;29;20467;-78
2023/12/13 05:02:06;;;;;;;0.63;0.50;;;22.20;62.60;;;;;;4948913;28;20470;-78
2023/12/13 05:04:34;;;;;;;0.50;0.50;;;22.20;62.60;;;;;;4951463;29;20527;-78
2023/12/13 05:07:02;;;;;;;0.93;0.83;;;22.20;62.60;;;;;;4934498;29;20479;-78
2023/12/13 05:09:30;;;;;;;0.63;0.50;;;22.20;62.60;;;;;;4943560;28;20459;-78
2023/12/13 05:12:00;;;;;;;0.63;0.50;;;22.30;62.60;;;;;;4946023;28;20463;-78
2023/12/13 05:14:28;;;;;;;0.63;0.63;;;22.30;62.50;;;;;;4955178;28;20506;-78
2023/12/13 05:16:56;;;;;;;0.90;0.90;;;22.30;62.40;;;;;;4949582;28;20886;-79
2023/12/13 05:19:24;;;;;;;0.50;0.50;;;22.40;62.10;;;;;;4942331;28;21066;-78
2023/12/13 05:21:53;;;;;;;0.60;0.60;;;22.40;62.10;;;;;;4952429;28;20471;-79
2023/12/13 05:24:21;;;;;;;0.57;0.57;;;22.40;62.30;;;;;;4942801;28;20483;-83
2023/12/13 05:26:49;;;;;;;1.00;0.60;;;22.50;62.30;;;;;;4946482;29;20928;-78
2023/12/13 05:29:19;;;;;;;0.90;0.50;;;22.50;62.30;;;;;;4944376;29;20448;-80
2023/12/13 05:31:47;;;;;;;1.07;0.80;;;22.50;62.40;;;;;;4936783;28;21137;-77
2023/12/13 05:34:15;;;;;;;1.63;0.77;;;22.60;62.60;;;;;;4946312;28;20468;-79
2023/12/13 05:36:43;;;;;;;0.83;0.80;;;22.60;62.50;;;;;;4941005;28;21143;-77
2023/12/13 05:39:11;;;;;;;1.03;0.77;;;22.70;62.50;;;;;;4954166;28;20767;-79
2023/12/13 05:41:40;;;;;;;1.03;0.60;;;22.70;62.40;;;;;;4948083;28;20964;-82
2023/12/13 05:44:08;;;;;;;0.70;0.70;;;22.70;62.40;;;;;;4948969;29;20452;-85
2023/12/13 05:46:38;;;;;;;1.10;0.60;;;22.80;62.40;;;;;;4966571;28;20545;-78
2023/12/13 05:49:06;;;;;;;1.27;0.50;;;22.80;62.40;;;;;;4944859;28;20498;-79
2023/12/13 05:51:38;;;;;;;0.80;0.53;;;22.80;62.40;;;;;;4947614;29;20456;-78
2023/12/13 05:54:07;;;;;;;0.60;0.57;;;22.90;62.40;;;;;;4946264;28;20868;-83
2023/12/13 05:56:35;;;;;;;1.60;0.60;;;22.90;62.50;;;;;;4946362;28;20466;-82
2023/12/13 05:59:04;;;;;;;0.97;0.60;;;22.90;62.50;;;;;;4954500;28;20524;-82
2023/12/13 06:01:33;;;;;;;2.20;0.73;;;22.90;62.50;;;;;;4959037;28;20577;-80
2023/12/13 06:04:03;;;;;;;0.90;0.50;;;22.90;62.50;;;;;;4963780;28;20463;-78
2023/12/13 06:06:31;;;;;;;1.27;0.57;;;22.80;62.60;;;;;;4950674;28;20466;-79
2023/12/13 06:08:59;;;;;;;3.47;0.93;;;22.80;62.60;;;;;;4958548;28;20448;-80
2023/12/13 06:11:28;;;;;;;2.00;0.80;;;22.80;62.60;;;;;;4961486;28;20468;-80
2023/12/13 06:13:57;;;;;;;2.93;0.70;;;22.80;62.60;;;;;;4959083;28;20463;-77
2023/12/13 06:16:25;;;;;;;1.23;0.73;;;22.80;62.60;;;;;;4948768;29;20466;-79
2023/12/13 06:18:53;;;;;;;1.27;0.77;;;22.80;62.70;;;;;;4950553;28;20497;-78
2023/12/13 06:21:23;;;;;;;1.07;0.67;;;22.80;62.70;;;;;;4964267;28;21025;-80
2023/12/13 06:23:51;;;;;;;1.00;0.70;;;22.70;62.70;;;;;;4948733;28;20472;-78
2023/12/13 06:26:19;;;;;;;0.83;0.70;;;22.70;62.90;;;;;;4947491;28;20459;-79
2023/12/13 06:28:47;;;;;;;1.97;1.00;;;22.70;62.90;;;;;;4956444;28;20570;-81
2023/12/13 06:31:15;;;;;;;2.03;1.00;;;22.70;63.00;;;;;;4951732;28;20944;-81
2023/12/13 06:33:44;;;;;;;3.17;0.80;;;22.70;63.00;;;;;;4958210;28;20485;-79
2023/12/13 06:36:12;;;;;;;1.40;1.30;;;22.70;63.10;;;;;;4962674;28;20890;-78
2023/12/13 06:38:41;;;;;;;2.80;0.83;;;22.60;63.10;;;;;;4953366;28;20490;-80
2023/12/13 06:41:10;;;;;;;2.17;1.20;;;22.60;63.00;;;;;;4952224;28;20477;-81
2023/12/13 06:43:38;;;;;;;1.80;0.87;;;22.60;63.10;;;;;;4957011;28;20455;-83
2023/12/13 06:46:06;;;;;;;4.27;1.20;;;22.60;63.10;;;;;;4953559;28;20462;-78
2023/12/13 06:48:34;;;;;;;1.40;0.70;;;22.60;63.10;;;;;;4971932;28;20845;-78
2023/12/13 06:51:03;;;;;;;1.70;1.07;;;22.60;63.10;;;;;;4958567;28;20950;-78
2023/12/13 06:53:31;;;;;;;2.20;0.70;;;22.60;63.10;;;;;;4957499;28;20555;-81
2023/12/13 06:56:01;;;;;;;2.00;0.60;;;22.60;63.10;;;;;;4950291;28;20882;-79
2023/12/13 06:58:29;;;;;;;3.70;1.37;;;22.60;63.10;;;;;;4946922;28;20463;-80
2023/12/13 07:00:57;;;;;;;2.30;1.10;;;22.60;63.10;;;;;;4946074;28;20961;-81
2023/12/13 07:03:25;;;;;;;3.10;1.40;;;22.60;63.00;;;;;;4962276;28;21044;-80
2023/12/13 07:05:54;;;;;;;0.73;0.70;;;22.60;62.90;;;;;;4961094;28;20867;-79
2023/12/13 07:08:22;;;;;;;2.93;1.10;;;22.60;62.90;;;;;;4967055;28;20482;-79
2023/12/13 07:10:51;;;;;;;2.40;0.83;;;22.60;62.90;;;;;;4965636;28;20455;-82
2023/12/13 07:13:20;;;;;;;1.03;0.83;;;22.60;62.90;;;;;;4951997;28;20498;-84
2023/12/13 07:15:49;;;;;;;1.33;0.70;;;22.70;62.80;;;;;;4963285;28;20545;-86
2023/12/13 07:18:18;;;;;;;1.07;0.77;;;22.70;62.80;;;;;;4957062;28;20473;-78
2023/12/13 07:20:46;;;;;;;1.30;0.80;;;22.70;62.70;;;;;;4951707;28;20898;-82
2023/12/13 07:23:14;;;;;;;3.27;1.20;;;22.70;62.70;;;;;;4944379;28;20451;-80
2023/12/13 07:25:42;;;;;;;2.40;0.70;;;22.70;62.60;;;;;;4958925;28;20975;-79
2023/12/13 07:28:13;;;;;;;1.00;0.80;;;22.70;62.60;;;;;;4971633;28;20577;-81
2023/12/13 07:30:43;;;;;;;2.10;0.87;;;22.70;62.50;;;;;;4969908;28;20451;-79
2023/12/13 07:33:29;;;;;;;3.67;1.30;;;22.70;62.50;;;;;;4948352;28;20533;-80
2023/12/13 07:35:58;;;;;;;3.80;1.00;;;22.70;62.50;;;;;;4959030;28;20579;-87
2023/12/13 07:38:26;;;;;;;1.80;0.97;;;22.70;62.40;;;;;;4968753;28;20462;-80
2023/12/13 07:40:55;;;;;;;1.40;0.80;;;22.70;62.40;;;;;;4945341;28;20468;-78
2023/12/13 07:43:23;;;;;;;0.90;0.70;;;22.70;62.40;;;;;;4966629;28;20471;-78
2023/12/13 07:45:54;;;;;;;3.40;0.87;;;22.60;62.30;;;;;;4953778;28;20485;-78
2023/12/13 07:48:23;;;;;;;0.80;0.77;;;22.70;62.30;;;;;;4947889;28;20476;-78
2023/12/13 07:50:59;;;;;;;0.90;0.80;;;22.60;62.30;;;;;;4956952;28;20470;-81
2023/12/13 07:53:28;;;;;;;1.00;0.70;;;22.60;62.30;;;;;;4965648;28;20536;-79
2023/12/13 07:55:56;;;;;;;3.43;0.97;;;22.60;62.20;;;;;;4952582;28;20463;-80
2023/12/13 07:58:24;;;;;;;3.33;0.90;;;22.60;62.20;;;;;;4958408;28;20491;-79
2023/12/13 08:00:54;;;;;;;1.50;0.60;;;22.60;62.20;;;;;;4953539;28;20492;-78
2023/12/13 08:03:23;;;;;;;1.77;0.87;;;22.60;62.20;;;;;;4955590;28;20455;-79
2023/12/13 08:05:51;;;;;;;0.80;0.77;;;22.60;62.20;;;;;;4945044;28;20472;-80
2023/12/13 08:08:19;;;;;;;6.43;1.17;;;22.60;62.20;;;;;;4955515;28;21026;-78
2023/12/13 08:10:47;;;;;;;4.10;1.30;;;22.60;63.70;;;;;;4952834;28;20883;-82
2023/12/13 08:13:16;;;;;;;1.70;0.97;;;22.70;64.50;;;;;;4960801;28;20469;-79
2023/12/13 08:15:45;;;;;;;3.73;1.33;;;22.70;64.20;;;;;;4961403;28;20506;-81
2023/12/13 08:18:15;;;;;;;2.47;1.07;;;22.70;64.50;;;;;;4954857;28;20455;-78
2023/12/13 08:20:44;;;;;;;2.00;1.30;;;22.80;64.80;;;;;;4956736;28;20575;-78
2023/12/13 08:23:12;;;;;;;2.30;1.20;;;22.80;64.90;;;;;;4959587;28;20455;-78
2023/12/13 08:25:41;;;;;;;4.60;1.23;;;22.80;65.10;;;;;;4962278;28;20455;-81
2023/12/13 08:28:10;;;;;;;2.10;1.20;;;22.90;65.20;;;;;;4963606;28;20474;-79
2023/12/13 08:30:38;;;;;;;9.13;1.43;;;22.90;65.30;;;;;;4962796;28;20467;-84
2023/12/13 08:33:06;;;;;;;2.63;1.37;;;22.90;65.40;;;;;;4947255;28;20460;-78
2023/12/13 08:35:36;;;;;;;4.57;1.13;;;22.90;65.40;;;;;;4957401;28;20549;-81
2023/12/13 08:38:05;;;;;;;7.20;2.40;;;22.90;65.40;;;;;;4957626;28;20463;-80
2023/12/13 08:40:33;;;;;;;1.10;0.97;;;22.90;65.50;;;;;;4952863;28;21153;-77
2023/12/13 08:43:01;;;;;;;2.97;1.20;;;22.90;65.50;;;;;;4949913;28;20483;-78
2023/12/13 08:45:29;;;;;;;3.30;1.27;;;22.90;65.40;;;;;;4954571;28;20455;-78
2023/12/13 08:47:58;;;;;;;2.73;1.40;;;22.90;65.40;;;;;;4953366;28;20455;-78
2023/12/13 08:50:26;;;;;;;6.83;2.13;;;22.90;65.40;;;;;;4954065;28;20530;-77
2023/12/13 08:52:56;;;;;;;3.03;1.10;;;22.90;65.30;;;;;;4967361;28;20467;-78
2023/12/13 08:55:24;;;;;;;4.23;1.50;;;22.90;65.30;;;;;;4959624;28;20459;-83
2023/12/13 08:57:52;;;;;;;1.17;0.93;;;23.00;65.30;;;;;;4964181;28;20457;-80
2023/12/13 09:00:21;;;;;;;2.87;1.10;;;22.90;65.30;;;;;;4960190;28;20463;-83
2023/12/13 09:02:49;;;;;;;8.60;1.10;;;23.00;65.20;;;;;;4963297;28;20447;-79
2023/12/13 09:05:17;;;;;;;2.00;1.33;;;23.00;65.20;;;;;;4956505;28;21110;-80
2023/12/13 09:07:45;;;;;;;1.93;1.20;;;23.00;65.20;;;;;;4956150;28;20447;-79
2023/12/13 09:10:16;;;;;;;2.07;1.40;;;23.00;65.10;;;;;;4950430;28;20554;-78
2023/12/13 09:12:45;;;;;;;3.47;1.37;;;23.00;65.10;;;;;;4953403;28;20464;-83
2023/12/13 09:15:13;;;;;;;1.73;0.90;;;23.00;65.10;;;;;;4952404;28;20496;-78
2023/12/13 09:17:45;;;;;;;3.43;1.30;;;23.00;65.00;;;;;;4959144;28;20525;-83
2023/12/13 09:20:15;;;;;;;1.57;0.90;;;23.10;65.00;;;;;;4943463;28;21018;-81
2023/12/13 09:22:44;;;;;;;3.70;1.57;;;23.10;65.00;;;;;;4963481;28;20451;-83
2023/12/13 09:25:14;;;;;;;3.23;1.27;;;23.10;64.90;;;;;;4964120;28;20546;-80
2023/12/13 09:27:44;;;;;;;3.00;1.80;;;23.10;64.70;;;;;;4956977;28;20447;-78
2023/12/13 09:30:13;;;;;;;2.60;0.83;;;23.10;64.60;;;;;;4951301;28;20474;-79
2023/12/13 09:32:42;;;;;;;2.43;1.20;;;23.10;64.60;;;;;;4949201;28;21041;-82
2023/12/13 09:35:15;;;;;;;1.60;1.30;;;23.10;64.10;;;;;;4959616;28;20809;-81
2023/12/13 09:37:43;;;;;;;1.10;0.87;;;23.10;64.10;;;;;;4966615;28;20458;-77
2023/12/13 09:40:15;;;;;;;2.20;0.80;;;23.10;64.30;;;;;;4963549;28;20451;-78
2023/12/13 09:42:46;;;;;;;3.37;1.20;;;23.10;64.40;;;;;;4956500;28;20456;-79
2023/12/13 09:45:21;;;;;;;2.10;1.10;;;23.10;64.40;;;;;;4960217;28;20467;-79
2023/12/13 09:47:53;;;;;;;3.50;1.87;;;23.00;64.50;;;;;;4953055;28;20517;-84
2023/12/13 09:50:23;;;;;;;1.13;0.70;;;23.00;64.50;;;;;;4952165;28;20481;-90
2023/12/13 09:52:53;;;;;;;3.87;0.90;;;23.00;64.50;;;;;;4951045;28;20455;-79
2023/12/13 09:55:21;;;;;;;2.63;1.10;;;23.00;64.50;;;;;;4957679;28;20462;-83
2023/12/13 09:57:51;;;;;;;2.00;0.83;;;23.00;64.50;;;;;;4964255;28;20445;-78
2023/12/13 10:00:19;;;;;;;1.03;0.90;;;23.00;64.50;;;;;;4966221;28;20530;-78
2023/12/13 10:02:49;;;;;;;1.37;0.80;;;23.00;64.40;;;;;;4959103;28;20468;-78
2023/12/13 10:05:18;;;;;;;0.80;0.80;;;23.00;64.40;;;;;;4952260;28;20478;-79
2023/12/13 10:07:46;;;;;;;1.60;1.13;;;23.00;64.40;;;;;;4960745;28;20483;-78
2023/12/13 10:10:14;;;;;;;2.30;0.80;;;23.00;64.30;;;;;;4960414;28;20486;-78
2023/12/13 10:12:43;;;;;;;1.03;0.93;;;23.00;64.30;;;;;;4956646;28;20909;-79
2023/12/13 10:15:14;;;;;;;1.63;0.90;;;23.00;64.30;;;;;;4952440;28;21080;-81
2023/12/13 10:17:42;;;;;;;1.67;1.40;;;23.00;64.30;;;;;;4968541;28;20458;-79
2023/12/13 10:20:11;;;;;;;2.30;1.00;;;23.00;64.30;;;;;;4955628;28;20462;-78
2023/12/13 10:22:40;;;;;;;4.50;1.30;;;23.10;64.30;;;;;;4960559;28;20458;-80
2023/12/13 10:25:10;;;;;;;1.47;1.10;;;23.10;64.20;;;;;;4967286;28;20467;-78
2023/12/13 10:27:38;;;;;;;2.10;1.00;;;23.00;64.10;;;;;;4953860;28;20558;-76
2023/12/13 10:30:10;;;;;;;2.77;1.43;;;23.00;63.90;;;;;;4961069;28;20477;-79
2023/12/13 10:32:40;;;;;;;5.33;0.90;;;23.00;63.90;;;;;;4952084;28;20451;-76
2023/12/13 10:35:09;;;;;;;1.03;0.73;;;23.10;64.10;;;;;;4960213;28;20556;-79
2023/12/13 10:37:38;;;;;;;1.43;0.80;;;23.00;63.90;;;;;;4940661;28;20468;-81
2023/12/13 10:40:09;;;;;;;1.07;0.63;;;23.00;63.90;;;;;;4948218;28;20452;-79
2023/12/13 10:42:38;;;;;;;1.60;1.40;;;23.00;63.80;;;;;;4960149;28;20447;-82
2023/12/13 10:45:10;;;;;;;2.53;1.37;;;23.10;63.80;;;;;;4957475;28;20461;-79
2023/12/13 10:47:45;;;;;;;2.33;1.40;;;23.10;63.80;;;;;;4954258;28;20452;-78
2023/12/13 10:50:17;;;;;;;1.10;1.03;;;23.10;63.90;;;;;;4953281;28;20478;-77
2023/12/13 10:52:46;;;;;;;1.30;0.97;;;23.10;63.80;;;;;;4968729;28;20454;-78
2023/12/13 10:55:16;;;;;;;0.90;0.67;;;23.10;63.60;;;;;;4965655;28;20488;-77
2023/12/13 10:57:44;;;;;;;0.80;0.80;;;23.10;63.80;;;;;;4955847;28;20555;-78
2023/12/13 11:00:14;;;;;;;0.83;0.63;;;23.10;63.70;;;;;;4948058;28;20455;-81
2023/12/13 11:02:52;;;;;;;0.90;0.90;;;23.10;63.80;;;;;;4945483;28;20492;-79
2023/12/13 11:05:20;;;;;;;1.50;1.17;;;23.10;63.80;;;;;;4955327;28;20453;-79
2023/12/13 11:07:50;;;;;;;0.90;0.83;;;23.00;63.70;;;;;;4958867;28;21029;-78
2023/12/13 11:10:22;;;;;;;1.43;1.00;;;23.00;63.60;;;;;;4966934;28;20521;-80
2023/12/13 11:12:51;;;;;;;1.30;1.20;;;23.00;63.50;;;;;;4951603;28;20486;-77
2023/12/13 11:15:20;;;;;;;4.10;1.00;;;23.00;63.30;;;;;;4945584;28;20990;-78
2023/12/13 11:17:54;;;;;;;1.50;1.13;;;23.00;63.30;;;;;;4949792;28;20467;-77
2023/12/13 11:20:24;;;;;;;1.87;1.47;;;23.00;63.10;;;;;;4949811;28;20463;-79
2023/12/13 11:22:57;;;;;;;0.73;0.73;;;23.00;63.20;;;;;;4944406;29;20559;-78
2023/12/13 11:25:36;;;;;;;0.83;0.83;;;22.90;63.10;;;;;;4943909;28;20970;-79
2023/12/13 11:28:04;;;;;;;1.10;0.90;;;22.90;63.30;;;;;;4962469;28;20548;-79
2023/12/13 11:30:33;;;;;;;1.57;1.27;;;22.90;63.10;;;;;;4967774;28;20474;-80
2023/12/13 11:33:12;;;;;;;2.83;1.60;;;23.00;63.30;;;;;;4953706;28;20475;-80
2023/12/13 11:35:40;;;;;;;1.77;1.50;;;23.00;63.10;;;;;;4958068;28;20526;-79
2023/12/13 11:38:09;;;;;;;4.87;2.80;;;23.00;63.30;;;;;;4944600;29;20447;-79
2023/12/13 11:40:37;;;;;;;5.30;3.67;;;23.00;63.30;;;;;;4961180;28;20465;-82
2023/12/13 11:43:05;;;;;;;11.83;6.03;;;23.00;63.40;;;;;;4947417;28;20960;-80
2023/12/13 11:45:34;;;;;;;7.00;5.63;;;23.00;63.40;;;;;;4953219;28;20949;-78
2023/12/13 11:48:04;;;;;;;8.70;5.40;;;23.00;63.50;;;;;;4966933;28;20482;-79
2023/12/13 11:50:57;;;;;;;9.60;5.60;;;23.00;63.50;;;;;;4963425;28;20472;-79
2023/12/13 11:53:26;;;;;;;11.23;6.23;;;23.00;63.50;;;;;;4950442;28;20960;-79
2023/12/13 11:55:54;;;;;;;13.13;7.63;;;23.00;63.50;;;;;;4952181;28;20511;-79
2023/12/13 11:58:22;;;;;;;11.60;7.60;;;23.00;63.70;;;;;;4960667;28;20511;-87
2023/12/13 12:00:51;;;;;;;13.60;8.10;;;23.00;63.90;;;;;;4956828;28;20447;-79
2023/12/13 12:03:21;;;;;;;13.00;7.47;;;23.00;64.00;;;;;;4958424;28;21102;-78
2023/12/13 12:05:49;;;;;;;13.50;8.10;;;23.00;64.00;;;;;;4939895;28;20460;-79
2023/12/13 12:08:23;;;;;;;15.47;8.30;;;23.00;64.10;;;;;;4955506;28;20451;-85
2023/12/13 12:10:51;;;;;;;15.50;8.80;;;23.00;64.10;;;;;;4950144;28;20533;-81
2023/12/13 12:13:21;;;;;;;17.43;9.47;;;23.10;64.00;;;;;;4959171;28;20483;-81
2023/12/13 12:15:49;;;;;;;14.40;9.10;;;23.10;63.90;;;;;;4963053;28;20963;-78
2023/12/13 12:18:17;;;;;;;13.43;8.10;;;23.10;63.90;;;;;;4964803;28;20517;-81
2023/12/13 12:20:48;;;;;;;15.93;9.90;;;23.10;64.00;;;;;;4955669;28;20540;-77
2023/12/13 12:23:18;;;;;;;26.47;10.93;;;23.10;64.00;;;;;;4964093;28;20443;-77
2023/12/13 12:25:47;;;;;;;15.17;9.17;;;23.10;63.90;;;;;;4958164;28;20456;-78
2023/12/13 12:28:15;;;;;;;15.40;9.30;;;23.10;64.00;;;;;;4956426;28;20446;-79
2023/12/13 12:30:45;;;;;;;15.37;8.60;;;23.20;64.00;;;;;;4953186;29;20486;-79
2023/12/13 12:33:14;;;;;;;15.97;8.37;;;23.20;63.90;;;;;;4954766;28;20451;-77
2023/12/13 12:35:42;;;;;;;14.20;8.07;;;23.20;63.90;;;;;;4951848;28;20448;-78
2023/12/13 12:38:14;;;;;;;17.03;9.03;;;23.20;63.90;;;;;;4961725;28;20448;-79
2023/12/13 12:40:42;;;;;;;16.03;8.30;;;23.20;63.90;;;;;;4961328;28;20459;-79
2023/12/13 12:43:11;;;;;;;14.30;7.83;;;23.20;64.00;;;;;;4945195;28;20555;-78
2023/12/13 12:45:41;;;;;;;19.53;9.40;;;23.20;63.80;;;;;;4959740;28;20474;-77
2023/12/13 12:48:10;;;;;;;15.57;9.03;;;23.20;63.90;;;;;;4960284;28;20443;-78
2023/12/13 12:50:38;;;;;;;13.10;7.50;;;23.20;63.80;;;;;;4951225;28;20474;-85
2023/12/13 12:53:07;;;;;;;11.30;9.10;;;23.20;63.70;;;;;;4964158;28;20471;-77
2023/12/13 12:55:37;;;;;;;13.60;8.90;;;23.10;63.80;;;;;;4961975;28;20462;-78
2023/12/13 12:58:05;;;;;;;15.17;8.87;;;23.10;63.90;;;;;;4959764;28;20904;-78